Time;durP1;ratioP1;P1;durP2;ratioP2;P2;SDS_P1;SDS_P2;PMS_P1;PMS_P2;Temp;Humidity;BMP_temperature;BMP_pressure;BME280_temperature;BME280_humidity;BME280_pressure;Samples;Min_cycle;Max_cycle;Signal;HPM_P1;HPM_P2
2022/01/09 00:01:30;;;;;;;76.05;7.43;;;7.20;99.90;;;;;;5110287;28;20268;-71
2022/01/09 00:03:56;;;;;;;56.20;6.65;;;7.20;99.90;;;;;;5105518;28;20217;-71
2022/01/09 00:06:22;;;;;;;58.90;6.22;;;7.20;99.90;;;;;;5108510;28;20177;-73
2022/01/09 00:08:47;;;;;;;69.15;7.40;;;7.20;99.90;;;;;;5107337;28;20280;-73
2022/01/09 00:11:14;;;;;;;66.88;6.88;;;7.20;99.90;;;;;;5111179;28;20645;-72
2022/01/09 00:13:41;;;;;;;72.28;7.55;;;7.20;99.90;;;;;;5107907;27;20189;-74
2022/01/09 00:16:07;;;;;;;66.03;6.70;;;7.20;99.90;;;;;;5118717;27;20551;-71
2022/01/09 00:18:32;;;;;;;69.72;6.72;;;7.20;99.90;;;;;;5116739;27;20180;-72
2022/01/09 00:20:59;;;;;;;78.68;7.25;;;7.20;99.90;;;;;;5092457;28;20320;-74
2022/01/09 00:23:25;;;;;;;65.85;6.65;;;7.20;99.90;;;;;;5116470;27;20219;-71
2022/01/09 00:25:50;;;;;;;62.92;6.45;;;7.20;99.90;;;;;;5109898;28;20633;-74
2022/01/09 00:28:16;;;;;;;76.50;8.15;;;7.20;99.90;;;;;;5113852;27;20184;-73
2022/01/09 00:30:41;;;;;;;72.82;6.95;;;7.20;99.90;;;;;;5107480;27;20198;-72
2022/01/09 00:33:07;;;;;;;82.07;7.25;;;7.20;99.90;;;;;;5120769;27;20185;-72
2022/01/09 00:35:34;;;;;;;62.00;6.13;;;7.20;99.90;;;;;;5108830;28;20191;-74
2022/01/09 00:38:00;;;;;;;61.88;7.70;;;7.20;99.90;;;;;;5119014;27;20401;-72
2022/01/09 00:40:26;;;;;;;53.05;6.50;;;7.60;99.90;;;;;;5110310;27;20181;-74
2022/01/09 00:42:52;;;;;;;54.72;6.53;;;7.50;99.90;;;;;;5109743;28;20232;-73
2022/01/09 00:45:18;;;;;;;48.72;6.47;;;7.40;99.90;;;;;;5111176;27;20205;-72
2022/01/09 00:47:45;;;;;;;55.45;6.40;;;7.30;99.90;;;;;;5109292;28;20174;-73
2022/01/09 00:50:12;;;;;;;45.88;6.22;;;7.30;99.90;;;;;;5110045;27;20181;-74
2022/01/09 00:52:38;;;;;;;59.83;6.80;;;7.20;99.90;;;;;;5110119;28;20270;-73
2022/01/09 00:55:05;;;;;;;50.83;6.60;;;7.20;99.90;;;;;;5107967;28;20189;-73
2022/01/09 00:57:31;;;;;;;55.05;6.35;;;7.30;99.90;;;;;;5109409;28;20212;-71
2022/01/09 00:59:57;;;;;;;44.30;6.15;;;7.30;99.90;;;;;;5096755;28;20181;-73
2022/01/09 01:02:23;;;;;;;43.72;5.95;;;7.20;99.90;;;;;;5110820;27;20201;-73
2022/01/09 01:04:51;;;;;;;55.58;5.97;;;7.20;99.90;;;;;;5107366;28;20204;-73
2022/01/09 01:07:19;;;;;;;46.13;6.32;;;7.20;99.90;;;;;;5110144;28;20192;-75
2022/01/09 01:09:45;;;;;;;48.65;6.03;;;7.20;99.90;;;;;;5113955;28;20590;-72
2022/01/09 01:12:10;;;;;;;54.17;5.80;;;7.20;99.90;;;;;;5091624;28;20246;-73
2022/01/09 01:14:36;;;;;;;55.35;6.05;;;7.20;99.90;;;;;;5107992;28;20221;-74
2022/01/09 01:17:03;;;;;;;51.08;5.95;;;7.20;99.90;;;;;;5106685;28;20185;-75
2022/01/09 01:19:28;;;;;;;46.80;5.30;;;7.20;99.90;;;;;;5115088;28;20196;-73
2022/01/09 01:21:54;;;;;;;43.70;5.53;;;7.20;99.90;;;;;;5112663;28;20185;-74
2022/01/09 01:24:21;;;;;;;44.33;5.47;;;7.20;99.90;;;;;;5107416;28;20582;-73
2022/01/09 01:26:47;;;;;;;42.78;5.03;;;7.20;99.90;;;;;;5109876;28;20185;-73
2022/01/09 01:29:13;;;;;;;41.42;5.30;;;7.20;99.90;;;;;;5108509;28;20197;-75
2022/01/09 01:31:39;;;;;;;43.63;4.85;;;7.20;99.90;;;;;;5115095;28;20231;-71
2022/01/09 01:34:04;;;;;;;39.33;5.55;;;7.20;99.90;;;;;;5107648;28;20613;-73
2022/01/09 01:36:30;;;;;;;43.25;6.80;;;7.20;99.90;;;;;;5108515;28;20411;-74
2022/01/09 01:38:56;;;;;;;47.43;6.63;;;7.50;99.90;;;;;;5104301;28;20418;-74
2022/01/09 01:41:21;;;;;;;48.22;6.57;;;7.80;99.90;;;;;;5116811;28;20460;-74
2022/01/09 01:43:47;;;;;;;40.20;6.22;;;8.00;99.90;;;;;;5088073;28;20999;-73
2022/01/09 01:46:12;;;;;;;44.77;5.73;;;8.10;99.90;;;;;;5106077;28;20415;-75
2022/01/09 01:48:38;;;;;;;46.22;6.13;;;8.20;99.90;;;;;;5105139;28;20478;-73
2022/01/09 01:51:04;;;;;;;45.10;6.73;;;8.20;99.90;;;;;;5105839;28;20404;-74
2022/01/09 01:53:30;;;;;;;47.88;6.65;;;8.30;99.90;;;;;;5087055;28;20418;-71
2022/01/09 01:55:57;;;;;;;47.08;6.40;;;8.30;99.90;;;;;;5109977;28;20498;-75
2022/01/09 01:58:26;;;;;;;42.17;6.47;;;8.30;99.90;;;;;;5111344;27;20515;-74
2022/01/09 02:00:52;;;;;;;43.60;6.25;;;8.40;99.90;;;;;;5115549;27;20403;-72
2022/01/09 02:03:18;;;;;;;42.85;7.00;;;8.40;99.90;;;;;;5108870;28;20419;-73
2022/01/09 02:05:44;;;;;;;38.10;5.97;;;8.40;99.90;;;;;;5110245;28;20785;-71
2022/01/09 02:08:10;;;;;;;42.60;6.20;;;8.40;99.90;;;;;;5111636;27;20404;-71
2022/01/09 02:10:42;;;;;;;35.55;5.78;;;8.40;99.90;;;;;;5092955;28;20442;-71
2022/01/09 02:13:08;;;;;;;41.38;6.28;;;8.40;99.90;;;;;;5111573;27;20443;-72
2022/01/09 02:15:38;;;;;;;39.50;5.82;;;8.40;99.90;;;;;;5111122;27;20442;-72
2022/01/09 02:18:07;;;;;;;37.92;5.78;;;8.40;99.90;;;;;;5111685;27;20479;-72
2022/01/09 02:20:35;;;;;;;40.03;5.80;;;8.40;99.90;;;;;;5105930;28;20407;-73
2022/01/09 02:23:01;;;;;;;37.55;5.93;;;8.40;99.90;;;;;;5117781;27;20408;-73
2022/01/09 02:25:27;;;;;;;29.30;4.63;;;8.40;99.90;;;;;;5113726;27;20398;-72
2022/01/09 02:27:53;;;;;;;34.17;5.10;;;8.40;99.90;;;;;;5121549;27;20396;-73
2022/01/09 02:30:19;;;;;;;32.05;4.80;;;8.30;99.90;;;;;;5110485;27;20488;-73
2022/01/09 02:32:45;;;;;;;32.47;4.70;;;8.30;99.90;;;;;;5109501;27;20843;-72
2022/01/09 02:35:10;;;;;;;40.83;5.40;;;8.30;99.90;;;;;;5109265;27;20423;-73
2022/01/09 02:37:36;;;;;;;34.20;5.10;;;8.30;99.90;;;;;;5109771;28;20408;-74
2022/01/09 02:40:04;;;;;;;31.90;5.03;;;8.30;99.90;;;;;;5108876;28;20479;-71
2022/01/09 02:42:31;;;;;;;32.80;4.88;;;8.30;99.90;;;;;;5109150;28;20424;-73
2022/01/09 02:44:56;;;;;;;37.45;5.15;;;8.30;99.90;;;;;;5108600;28;20892;-72
2022/01/09 02:47:24;;;;;;;30.45;4.85;;;8.30;99.90;;;;;;5122337;27;20429;-71
2022/01/09 02:49:53;;;;;;;27.02;4.30;;;8.30;99.90;;;;;;5110373;27;20916;-72
2022/01/09 02:52:35;;;;;;;29.60;4.33;;;8.30;99.90;;;;;;5115808;27;20407;-73
2022/01/09 02:55:11;;;;;;;31.13;5.50;;;8.30;99.90;;;;;;5112291;27;20402;-72
2022/01/09 02:57:42;;;;;;;30.92;5.22;;;8.40;99.90;;;;;;5116469;27;20404;-73
2022/01/09 03:00:11;;;;;;;27.75;4.57;;;8.40;99.90;;;;;;5113265;27;20452;-73
2022/01/09 03:02:37;;;;;;;31.80;4.75;;;8.30;99.90;;;;;;5108468;28;20545;-72
2022/01/09 03:05:03;;;;;;;28.10;4.40;;;8.30;99.90;;;;;;5108507;27;20448;-73
2022/01/09 03:07:29;;;;;;;28.50;4.37;;;8.30;99.90;;;;;;5091241;28;20396;-72
2022/01/09 03:09:55;;;;;;;30.95;4.25;;;8.20;99.90;;;;;;5108856;28;20769;-73
2022/01/09 03:12:22;;;;;;;32.00;4.75;;;8.20;99.90;;;;;;5110346;28;20448;-70
2022/01/09 03:14:48;;;;;;;29.77;4.18;;;8.20;99.90;;;;;;5108563;27;20414;-71
2022/01/09 03:17:13;;;;;;;32.33;4.40;;;8.30;99.90;;;;;;5108587;28;20413;-74
2022/01/09 03:19:39;;;;;;;30.73;4.68;;;8.20;99.90;;;;;;5106385;28;20404;-73
2022/01/09 03:22:04;;;;;;;32.53;4.70;;;8.20;99.90;;;;;;5109245;28;20404;-72
2022/01/09 03:24:30;;;;;;;30.97;4.87;;;8.20;99.90;;;;;;5099545;28;20971;-71
2022/01/09 03:26:56;;;;;;;29.98;4.75;;;8.20;99.90;;;;;;5109219;27;20919;-72
2022/01/09 03:29:21;;;;;;;24.37;4.27;;;8.20;99.90;;;;;;5107670;28;20492;-72
2022/01/09 03:31:47;;;;;;;26.48;4.97;;;8.20;99.90;;;;;;5110477;28;20396;-73
2022/01/09 03:34:13;;;;;;;31.57;4.87;;;8.30;99.90;;;;;;5105997;28;20423;-72
2022/01/09 03:36:38;;;;;;;28.50;4.30;;;8.30;99.90;;;;;;5114462;27;20407;-73
2022/01/09 03:39:04;;;;;;;32.00;4.60;;;8.30;99.90;;;;;;5090241;28;20431;-72
2022/01/09 03:41:30;;;;;;;30.60;4.67;;;8.30;99.90;;;;;;5108817;28;20881;-73
2022/01/09 03:43:55;;;;;;;34.53;4.43;;;8.30;99.90;;;;;;5108423;28;20496;-72
2022/01/09 03:46:21;;;;;;;28.37;4.50;;;8.40;99.90;;;;;;5101712;28;20411;-72
2022/01/09 03:48:46;;;;;;;31.52;5.68;;;8.40;99.90;;;;;;5109332;27;20417;-73
2022/01/09 03:51:12;;;;;;;29.37;4.40;;;8.40;99.90;;;;;;5143067;27;20404;-72
2022/01/09 03:53:39;;;;;;;25.13;4.53;;;8.40;99.90;;;;;;5109642;27;20392;-73
2022/01/09 03:56:05;;;;;;;30.10;4.75;;;8.40;99.90;;;;;;5109800;28;20867;-72
2022/01/09 03:58:30;;;;;;;30.65;4.53;;;8.30;99.90;;;;;;5116237;27;20396;-73
2022/01/09 04:00:56;;;;;;;24.63;4.43;;;8.30;99.90;;;;;;5105943;28;20470;-73
2022/01/09 04:03:22;;;;;;;31.48;4.45;;;8.30;99.90;;;;;;5106541;27;20495;-71
2022/01/09 04:05:47;;;;;;;24.73;4.53;;;8.30;99.90;;;;;;5113209;27;20423;-72
2022/01/09 04:08:13;;;;;;;28.83;4.57;;;8.30;99.90;;;;;;5108452;27;20408;-70
2022/01/09 04:10:43;;;;;;;26.58;4.25;;;8.30;99.90;;;;;;5110566;27;20459;-73
2022/01/09 04:13:13;;;;;;;26.50;3.78;;;8.20;99.90;;;;;;5110621;27;20200;-75
2022/01/09 04:15:45;;;;;;;29.65;4.47;;;7.80;99.90;;;;;;5107288;28;20598;-71
2022/01/09 04:18:13;;;;;;;24.85;4.05;;;7.90;99.90;;;;;;5109278;28;20949;-74
2022/01/09 04:20:38;;;;;;;25.73;4.18;;;8.00;99.90;;;;;;5106538;28;20407;-74
2022/01/09 04:23:04;;;;;;;28.70;4.22;;;8.00;99.90;;;;;;5104062;28;20415;-71
2022/01/09 04:25:29;;;;;;;27.00;5.07;;;8.10;99.90;;;;;;5107277;28;20408;-74
2022/01/09 04:27:55;;;;;;;27.47;4.27;;;8.10;99.90;;;;;;5113318;27;20396;-74
2022/01/09 04:30:21;;;;;;;31.42;4.30;;;8.10;99.90;;;;;;5106031;28;21568;-73
2022/01/09 04:32:47;;;;;;;26.58;4.10;;;8.10;99.90;;;;;;5096389;28;20903;-73
2022/01/09 04:35:13;;;;;;;25.10;3.67;;;8.10;99.90;;;;;;5108754;27;20912;-71
2022/01/09 04:37:39;;;;;;;27.83;4.05;;;8.20;99.90;;;;;;5119076;27;20419;-73
2022/01/09 04:40:08;;;;;;;25.60;3.78;;;8.20;99.90;;;;;;5107159;28;20416;-74
2022/01/09 04:42:46;;;;;;;24.52;3.58;;;8.20;99.90;;;;;;5117506;27;20416;-72
2022/01/09 04:45:14;;;;;;;23.58;4.40;;;8.20;99.90;;;;;;5105469;28;20426;-74
2022/01/09 04:47:43;;;;;;;27.83;4.43;;;8.20;99.90;;;;;;5109102;28;20403;-72
2022/01/09 04:50:13;;;;;;;29.63;4.23;;;8.20;99.90;;;;;;5110359;27;20777;-72
2022/01/09 04:52:40;;;;;;;25.87;3.87;;;8.20;99.90;;;;;;5115492;27;20908;-74
2022/01/09 04:55:06;;;;;;;32.08;4.45;;;8.20;99.90;;;;;;5109880;27;20495;-73
2022/01/09 04:57:32;;;;;;;28.25;4.45;;;8.20;99.90;;;;;;5105132;28;20404;-72
2022/01/09 04:59:58;;;;;;;31.20;4.90;;;8.20;99.90;;;;;;5110709;27;20528;-73
2022/01/09 05:02:24;;;;;;;31.70;4.50;;;8.20;99.90;;;;;;5104962;28;20416;-72
2022/01/09 05:04:50;;;;;;;24.40;3.80;;;8.20;99.90;;;;;;5106143;28;20473;-73
2022/01/09 05:07:15;;;;;;;24.10;4.05;;;8.20;99.90;;;;;;5107972;27;20394;-72
2022/01/09 05:09:41;;;;;;;24.57;4.17;;;8.10;99.90;;;;;;5106982;28;20408;-75
2022/01/09 05:12:07;;;;;;;27.37;4.47;;;8.10;99.90;;;;;;5117126;28;20417;-71
2022/01/09 05:14:33;;;;;;;27.07;3.90;;;8.10;99.90;;;;;;5094041;28;20403;-73
2022/01/09 05:16:58;;;;;;;24.58;4.38;;;8.10;99.90;;;;;;5108859;28;20393;-71
2022/01/09 05:19:28;;;;;;;27.40;4.20;;;8.10;99.90;;;;;;5102789;28;20914;-72
2022/01/09 05:21:55;;;;;;;27.75;4.22;;;8.10;99.90;;;;;;5105766;28;20408;-72
2022/01/09 05:24:20;;;;;;;27.50;4.60;;;8.10;99.90;;;;;;5111348;28;20420;-72
2022/01/09 05:26:46;;;;;;;23.20;3.75;;;8.10;99.90;;;;;;5108031;28;21024;-72
2022/01/09 05:29:12;;;;;;;28.27;4.07;;;8.10;99.90;;;;;;5107253;28;20418;-72
2022/01/09 05:31:38;;;;;;;25.67;4.03;;;8.00;99.90;;;;;;5109400;27;20423;-71
2022/01/09 05:34:04;;;;;;;23.10;3.63;;;8.00;99.90;;;;;;5110469;27;20413;-74
2022/01/09 05:36:30;;;;;;;24.60;3.67;;;8.00;99.90;;;;;;5116442;27;20408;-72
2022/01/09 05:38:56;;;;;;;23.55;4.10;;;8.00;99.90;;;;;;5089289;28;20442;-73
2022/01/09 05:41:22;;;;;;;25.53;3.60;;;8.00;99.90;;;;;;5109967;28;20848;-72
2022/01/09 05:43:48;;;;;;;28.92;4.30;;;8.00;99.90;;;;;;5108395;28;20537;-75
2022/01/09 05:46:14;;;;;;;22.43;3.77;;;8.00;99.90;;;;;;5108136;28;20955;-73
2022/01/09 05:48:39;;;;;;;28.25;4.68;;;8.10;99.90;;;;;;5122574;27;20496;-73
2022/01/09 05:51:05;;;;;;;19.00;3.23;;;8.00;99.90;;;;;;5127959;27;20456;-74
2022/01/09 05:53:31;;;;;;;13.38;2.85;;;8.10;99.90;;;;;;5112288;27;20814;-74
2022/01/09 05:55:57;;;;;;;16.73;2.90;;;8.00;99.90;;;;;;5108662;28;20424;-71
2022/01/09 05:58:23;;;;;;;11.00;2.28;;;7.90;99.90;;;;;;5111697;27;20407;-73
2022/01/09 06:00:48;;;;;;;16.88;2.50;;;7.80;99.90;;;;;;5111657;27;20185;-73
2022/01/09 06:03:14;;;;;;;17.60;2.50;;;7.30;99.90;;;;;;5144494;27;20219;-72
2022/01/09 06:05:39;;;;;;;16.50;2.63;;;7.00;99.90;;;;;;5107306;27;20178;-74
2022/01/09 06:08:05;;;;;;;19.92;2.83;;;6.80;99.90;;;;;;5108065;27;20641;-74
2022/01/09 06:10:31;;;;;;;24.90;2.85;;;6.60;99.90;;;;;;5122323;27;20276;-74
2022/01/09 06:12:57;;;;;;;19.38;2.88;;;6.60;99.90;;;;;;5104642;28;20203;-71
2022/01/09 06:15:22;;;;;;;23.45;3.58;;;6.50;99.90;;;;;;5110282;28;20184;-73
2022/01/09 06:17:48;;;;;;;12.35;2.03;;;6.40;99.90;;;;;;5112805;28;20185;-71
2022/01/09 06:20:15;;;;;;;10.85;2.20;;;6.40;99.90;;;;;;5114892;27;20207;-71
2022/01/09 06:22:42;;;;;;;14.68;2.42;;;6.30;99.90;;;;;;5120393;27;20708;-72
2022/01/09 06:25:09;;;;;;;15.98;2.50;;;6.30;99.90;;;;;;5115781;27;20181;-75
2022/01/09 06:27:35;;;;;;;15.93;2.53;;;6.20;99.90;;;;;;5112852;28;20185;-75
2022/01/09 06:30:05;;;;;;;18.65;2.65;;;6.20;99.90;;;;;;5117853;27;20177;-72
2022/01/09 06:32:31;;;;;;;11.10;2.13;;;6.20;99.90;;;;;;5117548;27;20204;-71
2022/01/09 06:34:57;;;;;;;18.10;2.67;;;6.10;99.90;;;;;;5106431;27;20189;-73
2022/01/09 06:37:23;;;;;;;21.70;3.17;;;6.00;99.90;;;;;;5128266;27;20224;-72
2022/01/09 06:39:48;;;;;;;22.52;3.00;;;6.00;99.90;;;;;;5114294;27;20224;-74
2022/01/09 06:42:14;;;;;;;21.67;2.83;;;6.00;99.90;;;;;;5122203;27;20228;-75
2022/01/09 06:44:40;;;;;;;31.80;3.60;;;6.00;99.90;;;;;;5110780;28;20185;-73
2022/01/09 06:47:06;;;;;;;33.30;4.47;;;5.90;99.90;;;;;;5109351;28;20173;-74
2022/01/09 06:49:32;;;;;;;23.00;4.00;;;6.00;99.90;;;;;;5099640;28;20842;-74
2022/01/09 06:51:58;;;;;;;28.70;3.22;;;6.00;99.90;;;;;;5111675;27;20254;-73
2022/01/09 06:54:24;;;;;;;18.63;2.65;;;5.90;99.90;;;;;;5091811;28;20650;-73
2022/01/09 06:56:49;;;;;;;19.10;2.60;;;5.90;99.90;;;;;;5116433;27;20672;-73
2022/01/09 06:59:15;;;;;;;17.08;2.78;;;5.90;99.90;;;;;;5114092;27;20200;-74
2022/01/09 07:01:41;;;;;;;23.10;2.67;;;5.90;99.90;;;;;;5109642;28;20193;-74
2022/01/09 07:04:06;;;;;;;24.30;2.95;;;5.90;99.90;;;;;;5115012;27;20224;-73
2022/01/09 07:06:33;;;;;;;28.05;3.72;;;5.90;99.90;;;;;;5118751;27;20549;-74
2022/01/09 07:08:59;;;;;;;23.33;3.33;;;5.90;99.90;;;;;;5102447;28;20651;-72
2022/01/09 07:11:24;;;;;;;25.60;3.40;;;5.90;99.90;;;;;;5111953;27;20182;-75
2022/01/09 07:13:50;;;;;;;23.88;3.20;;;5.90;99.90;;;;;;5109350;28;20181;-72
2022/01/09 07:16:16;;;;;;;29.63;3.78;;;5.90;99.90;;;;;;5111324;28;20181;-74
2022/01/09 07:18:41;;;;;;;30.70;3.90;;;5.80;99.90;;;;;;5112084;27;20194;-74
2022/01/09 07:21:07;;;;;;;32.35;3.70;;;5.80;99.90;;;;;;5109414;28;20200;-73
2022/01/09 07:23:33;;;;;;;25.55;3.33;;;5.80;99.90;;;;;;5114421;27;20215;-75
2022/01/09 07:25:58;;;;;;;23.00;3.60;;;5.80;99.90;;;;;;5107977;28;20195;-72
2022/01/09 07:28:24;;;;;;;21.58;3.53;;;5.80;99.90;;;;;;5118837;27;20169;-71
2022/01/09 07:30:49;;;;;;;17.55;2.90;;;5.90;99.90;;;;;;5109621;28;20181;-72
2022/01/09 07:33:15;;;;;;;12.60;2.28;;;5.80;99.90;;;;;;5108664;27;20706;-73
2022/01/09 07:35:41;;;;;;;18.90;2.13;;;5.80;99.90;;;;;;5107946;27;20600;-72
2022/01/09 07:38:07;;;;;;;12.25;2.33;;;5.80;99.90;;;;;;5107111;27;20213;-74
2022/01/09 07:40:32;;;;;;;13.68;2.45;;;5.80;99.90;;;;;;5105957;27;20196;-72
2022/01/09 07:42:58;;;;;;;15.40;2.53;;;5.80;99.90;;;;;;5109758;28;20307;-72
2022/01/09 07:45:26;;;;;;;16.77;2.63;;;5.80;99.90;;;;;;5106738;28;20658;-72
2022/01/09 07:47:53;;;;;;;16.05;2.47;;;5.80;99.90;;;;;;5111503;27;20193;-73
2022/01/09 07:50:22;;;;;;;13.93;2.40;;;5.70;99.90;;;;;;5106252;27;20277;-71
2022/01/09 07:52:48;;;;;;;13.68;2.33;;;5.70;99.90;;;;;;5105363;27;20545;-71
2022/01/09 07:55:15;;;;;;;13.27;2.63;;;5.80;99.90;;;;;;5105115;28;20193;-71
2022/01/09 07:57:41;;;;;;;19.55;3.20;;;5.70;99.90;;;;;;5110481;28;21509;-72
2022/01/09 08:00:09;;;;;;;18.63;3.33;;;5.70;99.90;;;;;;5110362;27;20200;-72
2022/01/09 08:02:42;;;;;;;23.98;3.00;;;5.70;99.90;;;;;;5110831;27;20208;-72
2022/01/09 08:05:08;;;;;;;21.25;3.05;;;5.60;99.90;;;;;;5109727;27;20189;-73
2022/01/09 08:07:34;;;;;;;19.90;3.05;;;5.60;99.90;;;;;;5111858;27;20268;-70
2022/01/09 08:10:00;;;;;;;30.80;3.13;;;5.60;99.90;;;;;;5113543;27;20272;-72
2022/01/09 08:12:26;;;;;;;25.88;3.03;;;5.60;99.90;;;;;;5115013;27;20629;-72
2022/01/09 08:14:51;;;;;;;25.27;3.38;;;5.70;99.90;;;;;;5108969;27;20561;-74
2022/01/09 08:17:17;;;;;;;18.30;3.38;;;5.60;99.90;;;;;;5109961;28;20192;-70
2022/01/09 08:19:43;;;;;;;24.23;3.35;;;5.70;99.90;;;;;;5110180;27;20211;-73
2022/01/09 08:22:09;;;;;;;24.90;3.08;;;5.70;99.90;;;;;;5114310;27;20744;-70
2022/01/09 08:24:35;;;;;;;23.60;3.55;;;5.70;99.90;;;;;;5108087;28;20181;-71
2022/01/09 08:27:02;;;;;;;18.58;3.53;;;5.70;99.90;;;;;;5109914;28;20219;-71
2022/01/09 08:29:27;;;;;;;28.10;4.47;;;5.70;99.90;;;;;;5119962;27;20408;-71
2022/01/09 08:31:53;;;;;;;20.97;3.93;;;6.10;99.90;;;;;;5097052;28;20445;-71
2022/01/09 08:34:19;;;;;;;21.38;3.80;;;6.40;99.90;;;;;;5106520;28;20408;-72
2022/01/09 08:36:45;;;;;;;24.60;3.80;;;6.70;99.90;;;;;;5109394;27;20396;-71
2022/01/09 08:39:11;;;;;;;25.60;3.65;;;6.90;99.90;;;;;;5116776;27;20955;-70
2022/01/09 08:41:37;;;;;;;27.58;3.67;;;7.00;99.90;;;;;;5107757;27;20504;-72
2022/01/09 08:44:07;;;;;;;26.65;3.75;;;7.10;99.90;;;;;;5103646;28;20413;-70
2022/01/09 08:46:34;;;;;;;20.50;3.28;;;7.20;99.90;;;;;;5108305;28;20403;-71
2022/01/09 08:49:01;;;;;;;21.15;3.30;;;7.20;99.90;;;;;;5106271;28;20495;-69
2022/01/09 08:51:28;;;;;;;24.33;3.70;;;7.30;99.90;;;;;;5100198;28;20427;-70
2022/01/09 08:53:54;;;;;;;24.38;3.65;;;7.30;99.90;;;;;;5106273;28;20416;-70
2022/01/09 08:56:23;;;;;;;28.15;3.60;;;7.40;99.90;;;;;;5106271;28;20402;-71
2022/01/09 08:58:49;;;;;;;23.88;3.78;;;7.40;99.90;;;;;;5104395;28;21071;-70
2022/01/09 09:01:15;;;;;;;25.67;4.00;;;7.40;99.90;;;;;;5101327;27;20411;-70
2022/01/09 09:03:41;;;;;;;26.25;4.32;;;7.40;99.90;;;;;;5105238;28;20412;-70
2022/01/09 09:06:08;;;;;;;26.83;4.45;;;7.50;99.90;;;;;;5107697;28;20420;-69
2022/01/09 09:08:34;;;;;;;26.67;4.18;;;7.50;99.90;;;;;;5105722;28;20407;-72
2022/01/09 09:11:00;;;;;;;29.17;4.00;;;7.60;99.90;;;;;;5105243;28;20872;-71
2022/01/09 09:13:25;;;;;;;26.23;4.18;;;7.60;99.90;;;;;;5105261;28;20434;-71
2022/01/09 09:15:51;;;;;;;24.77;4.20;;;7.60;99.90;;;;;;5086220;28;20889;-70
2022/01/09 09:18:17;;;;;;;24.40;4.07;;;7.70;99.90;;;;;;5096760;28;20978;-71
2022/01/09 09:20:44;;;;;;;27.25;3.92;;;7.70;99.90;;;;;;5091504;28;20672;-70
2022/01/09 09:23:12;;;;;;;25.80;3.65;;;7.40;99.90;;;;;;5106919;28;20291;-71
2022/01/09 09:25:38;;;;;;;21.98;3.60;;;7.10;99.90;;;;;;5107251;28;20184;-72
2022/01/09 09:28:04;;;;;;;22.15;3.83;;;7.00;99.90;;;;;;5112816;28;20613;-70
2022/01/09 09:30:30;;;;;;;26.92;4.07;;;6.90;99.90;;;;;;5096914;28;20196;-71
2022/01/09 09:32:56;;;;;;;24.20;3.58;;;6.80;99.90;;;;;;5103954;28;20189;-68
2022/01/09 09:35:22;;;;;;;20.98;3.75;;;6.80;99.90;;;;;;5101187;28;20189;-71
2022/01/09 09:37:48;;;;;;;26.83;3.45;;;6.80;99.90;;;;;;5103334;28;20189;-71
2022/01/09 09:40:14;;;;;;;31.95;3.60;;;6.80;99.90;;;;;;5103968;28;20185;-70
2022/01/09 09:42:40;;;;;;;26.67;3.30;;;6.80;99.90;;;;;;5102196;28;20221;-72
2022/01/09 09:45:07;;;;;;;34.13;3.50;;;6.80;99.90;;;;;;5102861;28;20189;-69
2022/01/09 09:47:34;;;;;;;23.10;3.10;;;6.70;99.90;;;;;;5099649;28;20219;-70
2022/01/09 09:50:01;;;;;;;25.60;3.33;;;6.80;99.90;;;;;;5118118;27;20209;-69
2022/01/09 09:52:27;;;;;;;;;;;7.00;99.90;;;;;;5106386;28;20169;-71
2022/01/09 09:54:53;;;;;;;;;;;7.40;99.90;;;;;;5103195;28;19998;-69
2022/01/09 09:57:19;;;;;;;;;;;7.50;99.90;;;;;;5104553;28;19915;-71
2022/01/09 09:59:45;;;;;;;;;;;7.50;99.90;;;;;;5103150;28;20049;-71
2022/01/09 10:02:11;;;;;;;;;;;7.40;99.90;;;;;;5101220;28;20292;-70
2022/01/09 10:04:55;;;;;;;;;;;7.40;99.90;;;;;;5136777;27;19932;-69
2022/01/09 10:07:21;;;;;;;;;;;7.30;99.90;;;;;;5101424;28;19919;-71
2022/01/09 10:09:57;;;;;;;;;;;7.30;99.90;;;;;;5081599;28;19915;-71
2022/01/09 10:12:27;;;;;;;;;;;7.40;99.90;;;;;;5102146;28;19962;-70
2022/01/09 10:14:54;;;;;;;;;;;7.50;99.90;;;;;;5103301;28;20507;-73
2022/01/09 10:17:20;;;;;;;;;;;7.50;99.90;;;;;;5106149;28;19908;-69
2022/01/09 10:20:09;;;;;;;;;;;7.50;99.90;;;;;;5109744;27;20387;-70
2022/01/09 10:22:48;;;;;;;;;;;7.50;99.90;;;;;;5138581;27;20006;-69
2022/01/09 10:25:18;;;;;;;;;;;7.50;99.90;;;;;;5107301;27;19965;-69
2022/01/09 10:27:44;;;;;;;;;;;7.50;99.90;;;;;;5106226;28;20390;-70
2022/01/09 10:30:10;;;;;;;;;;;7.50;99.90;;;;;;5105663;28;19916;-71
2022/01/09 10:32:36;;;;;;;;;;;7.40;99.90;;;;;;5107352;27;19947;-73
2022/01/09 10:35:09;;;;;;;;;;;7.40;99.90;;;;;;5109328;27;20380;-71
2022/01/09 10:37:35;;;;;;;;;;;7.40;99.90;;;;;;5140652;27;19918;-71
2022/01/09 10:40:02;;;;;;;;;;;7.40;99.90;;;;;;5106904;27;20380;-70
2022/01/09 10:42:28;;;;;;;;;;;7.40;99.90;;;;;;5107297;27;19920;-70
2022/01/09 10:44:54;;;;;;;;;;;7.40;99.90;;;;;;5121782;27;19919;-71
2022/01/09 10:47:19;;;;;;;;;;;7.40;99.90;;;;;;5108236;27;19908;-71
2022/01/09 10:49:48;;;;;;;;;;;7.50;99.90;;;;;;5107867;28;19938;-70
2022/01/09 10:52:25;;;;;;;;;;;7.50;99.90;;;;;;5109533;28;19965;-71
2022/01/09 10:54:52;;;;;;;;;;;7.60;99.90;;;;;;5105511;28;19916;-71
2022/01/09 10:57:22;;;;;;;;;;;7.80;99.90;;;;;;5107436;28;19915;-70
2022/01/09 10:59:48;;;;;;;;;;;7.90;99.90;;;;;;5107181;27;19922;-72
2022/01/09 11:02:14;;;;;;;;;;;7.90;99.90;;;;;;5103218;28;19923;-70
2022/01/09 11:04:40;;;;;;;;;;;7.80;99.90;;;;;;5108462;27;20363;-71
2022/01/09 11:07:06;;;;;;;;;;;7.80;99.90;;;;;;5107460;27;20674;-72
2022/01/09 11:09:33;;;;;;;;;;;7.60;99.90;;;;;;5104281;28;19912;-69
2022/01/09 11:11:58;;;;;;;;;;;7.40;99.90;;;;;;5108003;28;19919;-70
2022/01/09 11:14:26;;;;;;;14.73;2.63;;;7.20;99.90;;;;;;5103684;28;20194;-69
2022/01/09 11:16:54;;;;;;;19.83;2.97;;;7.10;99.90;;;;;;5105734;27;20191;-71
2022/01/09 11:19:42;;;;;;;18.33;6.18;;;7.00;99.90;;;;;;5106248;27;20654;-71
2022/01/09 11:22:28;;;;;;;13.68;3.08;;;6.90;99.90;;;;;;5105788;28;20407;-69
2022/01/09 11:25:13;;;;;;;16.55;3.83;;;7.30;99.90;;;;;;5105372;27;20453;-70
2022/01/09 11:28:12;;;;;;;18.38;3.08;;;7.60;99.90;;;;;;5103619;28;20839;-72
2022/01/09 11:31:08;;;;;;;20.20;3.60;;;7.40;99.90;;;;;;5104709;27;20412;-71
2022/01/09 11:33:45;;;;;;;20.45;3.75;;;7.70;99.90;;;;;;5120740;27;20415;-69
2022/01/09 11:36:28;;;;;;;22.77;3.97;;;7.90;99.90;;;;;;5104816;27;20415;-71
2022/01/09 11:39:15;;;;;;;26.10;4.03;;;8.10;99.90;;;;;;5103451;28;20435;-70
2022/01/09 11:41:43;;;;;;;25.42;4.30;;;8.30;99.90;;;;;;5118546;27;20431;-72
2022/01/09 11:44:11;;;;;;;32.95;4.68;;;8.40;99.90;;;;;;5102863;28;20458;-70
2022/01/09 11:46:56;;;;;;;25.33;4.43;;;8.60;99.90;;;;;;5105506;28;20483;-72
2022/01/09 11:49:22;;;;;;;29.70;4.90;;;9.10;99.90;;;;;;5103538;28;20446;-73
2022/01/09 11:51:54;;;;;;;28.20;4.78;;;9.70;99.90;;;;;;5110150;27;20983;-70
2022/01/09 11:54:20;;;;;;;30.23;4.45;;;10.10;99.90;;;;;;5105939;27;20442;-71
2022/01/09 11:56:56;;;;;;;28.50;4.60;;;10.40;99.90;;;;;;5111540;27;20901;-71
2022/01/09 11:59:28;;;;;;;23.92;3.92;;;10.70;99.90;;;;;;5107838;28;20407;-71
2022/01/09 12:02:00;;;;;;;27.42;4.30;;;11.00;99.90;;;;;;5111145;27;20410;-71
2022/01/09 12:04:37;;;;;;;30.25;4.93;;;11.20;99.90;;;;;;5107605;27;20892;-69
2022/01/09 12:07:07;;;;;;;30.65;4.03;;;11.00;99.90;;;;;;5115220;27;20420;-70
2022/01/09 12:09:41;;;;;;;23.23;4.55;;;10.70;99.90;;;;;;5108712;27;20396;-69
2022/01/09 12:12:12;;;;;;;26.73;4.33;;;10.40;99.90;;;;;;5109554;28;20441;-70
2022/01/09 12:15:05;;;;;;;24.97;4.30;;;10.20;99.90;;;;;;5107075;28;20895;-73
2022/01/09 12:17:36;;;;;;;29.73;4.05;;;10.20;99.90;;;;;;5119341;27;20433;-70
2022/01/09 12:20:14;;;;;;;26.77;4.65;;;10.50;99.90;;;;;;5107724;27;20904;-69
2022/01/09 12:22:46;;;;;;;26.58;4.22;;;11.00;99.90;;;;;;5116090;27;20426;-73
2022/01/09 12:25:30;;;;;;;26.70;4.13;;;11.50;99.90;;;;;;5108650;27;20418;-72
2022/01/09 12:28:03;;;;;;;21.23;3.95;;;12.00;98.70;;;;;;5111826;27;20412;-71
2022/01/09 12:30:41;;;;;;;18.88;4.22;;;12.50;97.60;;;;;;5122553;27;20403;-71
2022/01/09 12:33:09;;;;;;;23.30;3.97;;;12.80;96.10;;;;;;5089520;28;20963;-69
2022/01/09 12:35:37;;;;;;;22.30;3.72;;;13.00;95.20;;;;;;5105551;28;20412;-70
2022/01/09 12:38:04;;;;;;;25.02;4.30;;;13.10;94.20;;;;;;5106518;27;20408;-70
2022/01/09 12:40:35;;;;;;;23.52;3.90;;;13.00;93.60;;;;;;5106846;28;20404;-69
2022/01/09 12:43:03;;;;;;;19.55;3.55;;;12.70;93.30;;;;;;5108901;27;20448;-68
2022/01/09 12:45:31;;;;;;;18.75;3.47;;;12.40;93.40;;;;;;5105589;28;20443;-70
2022/01/09 12:47:59;;;;;;;20.98;3.80;;;12.00;94.00;;;;;;5120704;27;20410;-69
2022/01/09 12:50:30;;;;;;;25.05;4.18;;;11.80;94.50;;;;;;5109740;27;20484;-72
2022/01/09 12:53:14;;;;;;;20.33;3.72;;;11.50;95.20;;;;;;5109137;28;20395;-71
2022/01/09 12:56:00;;;;;;;23.38;4.13;;;11.40;95.90;;;;;;5104874;27;20892;-70
2022/01/09 12:58:33;;;;;;;24.50;4.13;;;11.40;96.30;;;;;;5113404;27;20403;-72